Time;durP1;ratioP1;P1;durP2;ratioP2;P2;SDS_P1;SDS_P2;PMS_P1;PMS_P2;Temp;Humidity;BMP_temperature;BMP_pressure;BME280_temperature;BME280_humidity;BME280_pressure;Samples;Min_cycle;Max_cycle;Signal;HPM_P1;HPM_P2
2022/01/08 00:00:58;;;;;;;32.03;16.25;;;;;;;6.38;100.00;100852.34;5100023;28;20047;-53
2022/01/08 00:03:24;;;;;;;34.17;16.27;;;;;;;6.28;100.00;100857.81;5093773;28;20046;-52
2022/01/08 00:05:49;;;;;;;27.13;15.53;;;;;;;6.18;100.00;100854.53;5092498;28;20096;-52
2022/01/08 00:08:15;;;;;;;33.70;16.80;;;;;;;6.12;100.00;100856.00;5094371;28;20032;-52
2022/01/08 00:10:41;;;;;;;31.80;16.40;;;;;;;6.21;100.00;100859.50;5092266;28;20028;-52
2022/01/08 00:13:07;;;;;;;36.45;18.55;;;;;;;6.34;100.00;100855.50;5093605;28;20228;-51
2022/01/08 00:15:34;;;;;;;27.00;16.23;;;;;;;6.21;100.00;100853.34;5093570;28;20104;-55
2022/01/08 00:18:00;;;;;;;34.97;16.92;;;;;;;6.26;100.00;100856.34;5093946;28;20039;-53
2022/01/08 00:20:27;;;;;;;31.15;16.38;;;;;;;6.07;100.00;100858.34;5093549;28;20403;-54
2022/01/08 00:22:54;;;;;;;36.42;17.67;;;;;;;6.11;100.00;100853.50;5094115;28;20479;-54
2022/01/08 00:25:20;;;;;;;33.95;17.25;;;;;;;6.16;100.00;100862.63;5091937;28;20044;-52
2022/01/08 00:27:46;;;;;;;32.20;17.25;;;;;;;6.20;100.00;100865.81;5093610;28;20036;-53
2022/01/08 00:30:13;;;;;;;33.03;15.73;;;;;;;5.88;100.00;100865.56;5094028;28;20068;-54
2022/01/08 00:32:40;;;;;;;37.33;15.95;;;;;;;5.91;100.00;100860.94;5103504;28;20032;-54
2022/01/08 00:35:06;;;;;;;;;;;;;;;5.81;100.00;100869.03;5099398;28;20456;-52
2022/01/08 00:37:33;;;;;;;37.90;15.90;;;;;;;5.82;100.00;100868.91;5093797;28;19912;-53
2022/01/08 00:39:58;;;;;;;32.83;17.45;;;;;;;6.17;100.00;100866.94;5093980;28;20032;-53
2022/01/08 00:42:24;;;;;;;30.90;16.93;;;;;;;5.74;100.00;100869.69;5104779;28;20438;-55
2022/01/08 00:44:49;;;;;;;33.10;16.77;;;;;;;5.93;100.00;100862.44;5092806;28;20113;-50
2022/01/08 00:47:15;;;;;;;38.80;16.10;;;;;;;5.92;100.00;100876.72;5093496;28;20107;-50
2022/01/08 00:49:40;;;;;;;33.43;15.60;;;;;;;5.57;100.00;100870.66;5093438;28;20276;-53
2022/01/08 00:52:06;;;;;;;32.73;15.77;;;;;;;5.64;100.00;100881.44;5093493;28;20048;-51
2022/01/08 00:54:32;;;;;;;43.87;16.90;;;;;;;5.97;100.00;100878.84;5093704;28;20036;-53
2022/01/08 00:56:57;;;;;;;32.70;14.90;;;;;;;5.79;100.00;100881.66;5091937;28;20127;-52
2022/01/08 00:59:23;;;;;;;34.05;15.18;;;;;;;5.88;100.00;100883.31;5093441;28;20079;-53
2022/01/08 01:01:48;;;;;;;38.63;15.20;;;;;;;5.78;100.00;100880.84;5093392;28;20040;-53
2022/01/08 01:04:14;;;;;;;36.10;14.77;;;;;;;5.71;100.00;100890.41;5093269;28;20036;-53
2022/01/08 01:06:39;;;;;;;30.27;13.70;;;;;;;5.65;100.00;100885.75;5093337;28;20275;-52
2022/01/08 01:09:05;;;;;;;30.73;15.13;;;;;;;5.87;100.00;100892.28;5093147;28;20025;-51
2022/01/08 01:11:30;;;;;;;29.10;12.90;;;;;;;5.74;100.00;100879.47;5092081;28;20043;-53
2022/01/08 01:13:56;;;;;;;30.17;12.48;;;;;;;5.93;100.00;100877.53;5093178;28;20502;-52
2022/01/08 01:16:21;;;;;;;24.07;13.03;;;;;;;5.94;100.00;100880.03;5093532;28;20032;-54
2022/01/08 01:18:47;;;;;;;28.07;13.43;;;;;;;5.95;100.00;100872.88;5093830;28;20455;-56
2022/01/08 01:21:12;;;;;;;33.60;12.63;;;;;;;5.97;100.00;100882.34;5093603;28;20044;-55
2022/01/08 01:23:42;;;;;;;25.17;12.10;;;;;;;5.93;100.00;100886.34;5092089;28;20457;-54
2022/01/08 01:26:12;;;;;;;25.48;12.85;;;;;;;5.93;100.00;100880.19;5097033;28;20044;-54
2022/01/08 01:47:59;;;;;;;17.98;9.70;;;;;;;5.76;100.00;100909.34;5097381;28;20032;-54
2022/01/08 01:50:24;;;;;;;26.07;14.37;;;;;;;5.82;100.00;100903.41;5096247;28;20034;-54
2022/01/08 01:52:50;;;;;;;21.00;9.25;;;;;;;5.59;100.00;100890.72;5095033;28;20040;-52
2022/01/08 01:55:15;;;;;;;16.70;8.95;;;;;;;5.51;100.00;100888.03;5078936;28;20040;-53
2022/01/08 01:57:41;;;;;;;21.73;9.43;;;;;;;5.51;100.00;100882.72;5096112;28;20044;-55
2022/01/08 02:00:08;;;;;;;19.53;8.77;;;;;;;5.59;100.00;100877.47;5095773;28;20471;-55
2022/01/08 02:02:38;;;;;;;20.15;8.38;;;;;;;5.54;100.00;100879.78;5095805;28;20381;-51
2022/01/08 02:05:04;;;;;;;22.00;8.52;;;;;;;5.34;100.00;100881.03;5096065;28;20040;-53
2022/01/08 02:07:29;;;;;;;19.63;7.95;;;;;;;5.62;100.00;100870.19;5094879;28;20043;-53
2022/01/08 02:09:55;;;;;;;25.83;8.68;;;;;;;5.82;100.00;100871.56;5095678;28;20066;-51
2022/01/08 02:12:22;;;;;;;18.42;10.48;;;;;;;5.70;100.00;100872.84;5095330;28;20040;-51
2022/01/08 02:14:49;;;;;;;19.35;7.75;;;;;;;5.62;100.00;100870.19;5096329;28;20040;-53
2022/01/08 02:17:14;;;;;;;31.63;9.40;;;;;;;5.65;100.00;100880.47;5095581;28;20059;-54
2022/01/08 02:19:41;;;;;;;20.23;9.18;;;;;;;5.55;100.00;100870.81;5094550;28;20494;-53
2022/01/08 02:22:10;;;;;;;20.88;7.80;;;;;;;5.67;100.00;100878.47;5095962;28;20048;-55
2022/01/08 02:24:36;;;;;;;24.58;8.50;;;;;;;5.38;100.00;100874.41;5095580;28;20062;-55
2022/01/08 02:27:02;;;;;;;22.10;7.90;;;;;;;5.39;100.00;100870.75;5094422;28;20044;-55
2022/01/08 02:29:28;;;;;;;22.98;9.13;;;;;;;5.67;100.00;100875.81;5094718;28;20040;-52
2022/01/08 02:32:04;;;;;;;16.95;8.10;;;;;;;5.53;100.00;100883.41;5095344;28;20380;-53
2022/01/08 02:34:30;;;;;;;20.77;7.97;;;;;;;5.42;100.00;100883.69;5094148;28;20085;-51
2022/01/08 02:36:57;;;;;;;22.95;8.60;;;;;;;5.57;100.00;100878.59;5095133;28;20422;-54
2022/01/08 02:39:23;;;;;;;23.38;7.93;;;;;;;5.55;100.00;100888.56;5094241;28;20040;-55
2022/01/08 02:41:54;;;;;;;23.55;8.63;;;;;;;5.78;100.00;100891.44;5094564;28;20121;-55
2022/01/08 02:44:20;;;;;;;16.08;8.32;;;;;;;5.60;100.00;100896.84;5095192;28;20032;-55
2022/01/08 02:46:46;;;;;;;18.13;6.93;;;;;;;5.73;100.00;100899.88;5094910;28;20417;-55
2022/01/08 02:49:11;;;;;;;15.82;7.78;;;;;;;5.78;100.00;100895.91;5094419;28;20062;-50
2022/01/08 02:51:37;;;;;;;21.97;7.10;;;;;;;5.72;100.00;100897.38;5094721;28;20101;-53
2022/01/08 02:54:07;;;;;;;16.23;8.07;;;;;;;5.67;100.00;100895.25;5095212;28;20035;-54
2022/01/08 02:56:32;;;;;;;24.95;8.10;;;;;;;5.41;100.00;100887.34;5096829;28;20044;-53
2022/01/08 02:58:58;;;;;;;21.20;9.73;;;;;;;5.56;100.00;100895.53;5098415;28;20051;-53
2022/01/08 03:01:24;;;;;;;24.55;9.15;;;;;;;5.48;100.00;100895.50;5095322;28;20044;-52
2022/01/08 03:03:52;;;;;;;15.25;7.60;;;;;;;5.56;100.00;100888.41;5076731;28;20050;-54
2022/01/08 03:06:17;;;;;;;17.73;7.72;;;;;;;5.57;100.00;100886.56;5094960;28;20157;-53
2022/01/08 03:08:43;;;;;;;15.90;7.75;;;;;;;5.68;100.00;100891.59;5095305;28;20064;-53
2022/01/08 03:11:08;;;;;;;17.42;6.13;;;;;;;5.59;100.00;100892.53;5094670;28;20107;-53
2022/01/08 03:13:34;;;;;;;15.03;7.50;;;;;;;5.64;100.00;100881.44;5093291;28;20086;-54
2022/01/08 03:15:59;;;;;;;15.77;7.33;;;;;;;5.40;100.00;100885.69;5059602;28;20075;-54
2022/01/08 03:18:25;;;;;;;17.40;7.53;;;;;;;5.51;100.00;100885.38;5094991;28;20028;-53
2022/01/08 03:21:01;;;;;;;14.47;6.33;;;;;;;5.90;100.00;100894.63;5094631;28;20511;-52
2022/01/08 03:23:36;;;;;;;19.20;6.57;;;;;;;5.87;100.00;100893.13;5077748;28;20048;-50
2022/01/08 03:26:01;;;;;;;13.90;6.25;;;;;;;5.96;100.00;100891.31;5092877;28;20085;-53
2022/01/08 03:28:27;;;;;;;16.15;5.95;;;;;;;5.82;100.00;100898.09;5094078;28;20458;-52
2022/01/08 03:30:52;;;;;;;23.43;6.63;;;;;;;5.47;100.00;100897.31;5093105;28;20050;-54
2022/01/08 03:33:18;;;;;;;14.67;6.53;;;;;;;5.78;100.00;100903.88;5094215;28;20089;-50
2022/01/08 03:35:43;;;;;;;12.53;5.37;;;;;;;5.98;100.00;100909.72;5092785;28;20044;-53
2022/01/08 03:38:09;;;;;;;25.33;7.40;;;;;;;5.77;100.00;100911.03;5093908;28;20085;-52
2022/01/08 03:40:34;;;;;;;15.75;6.72;;;;;;;5.85;100.00;100896.91;5092863;28;20119;-52
2022/01/08 03:43:00;;;;;;;21.07;7.37;;;;;;;5.92;100.00;100913.03;5092874;28;20491;-54
2022/01/08 03:45:25;;;;;;;16.73;8.00;;;;;;;5.88;100.00;100907.19;5094594;28;20468;-52
2022/01/08 03:50:16;;;;;;;18.63;6.70;;;;;;;5.88;100.00;100913.34;5093790;28;20043;-53
2022/01/08 03:52:42;;;;;;;15.05;6.18;;;;;;;5.81;100.00;100912.34;5075758;28;20502;-50
2022/01/08 03:55:08;;;;;;;18.07;6.43;;;;;;;5.63;100.00;100901.84;5093958;28;20085;-51
2022/01/08 03:57:33;;;;;;;16.75;6.53;;;;;;;5.67;100.00;100905.00;5093739;28;20766;-52
2022/01/08 03:59:59;;;;;;;13.83;6.43;;;;;;;5.58;100.00;100905.00;5092756;28;20075;-54
2022/01/08 04:02:24;;;;;;;22.70;7.15;;;;;;;5.62;100.00;100910.78;5093767;28;20035;-52
2022/01/08 04:04:50;;;;;;;18.42;6.07;;;;;;;5.93;100.00;100907.56;5094074;28;20542;-52
2022/01/08 04:07:15;;;;;;;15.10;6.47;;;;;;;5.82;100.00;100907.88;5092565;28;20044;-52
2022/01/08 04:09:41;;;;;;;17.60;8.43;;;;;;;5.70;100.00;100912.63;5094560;28;20460;-59
2022/01/08 04:12:08;;;;;;;19.08;7.68;;;;;;;5.36;100.00;100910.88;5097035;28;20039;-54
2022/01/08 04:14:49;;;;;;;16.33;6.07;;;;;;;5.29;100.00;100908.84;5092758;28;20054;-53
2022/01/08 04:17:16;;;;;;;22.40;6.43;;;;;;;5.79;100.00;100913.50;5093630;28;20040;-53
2022/01/08 04:19:42;;;;;;;17.00;5.70;;;;;;;5.52;100.00;100913.56;5093698;28;20061;-52
2022/01/08 04:22:12;;;;;;;17.27;5.78;;;;;;;5.73;100.00;100920.28;5092848;28;20066;-53
2022/01/08 04:24:42;;;;;;;21.15;5.97;;;;;;;5.86;100.00;100920.66;5092189;28;20070;-51
2022/01/08 04:27:07;;;;;;;17.73;6.70;;;;;;;5.67;100.00;100915.63;5093349;28;20074;-52
2022/01/08 04:29:33;;;;;;;19.53;6.23;;;;;;;5.67;100.00;100926.22;5092406;28;20446;-54
2022/01/08 04:31:58;;;;;;;15.52;5.85;;;;;;;5.73;100.00;100929.06;5093806;28;20055;-52
2022/01/08 04:34:24;;;;;;;14.43;5.93;;;;;;;5.62;100.00;100921.41;5093268;28;20123;-53
2022/01/08 04:36:49;;;;;;;22.27;5.70;;;;;;;5.77;100.00;100937.56;5093236;28;20541;-54
2022/01/08 04:39:15;;;;;;;18.83;5.35;;;;;;;5.70;100.00;100939.19;5094000;28;20041;-56
2022/01/08 04:41:44;;;;;;;12.25;6.30;;;;;;;5.67;100.00;100935.03;5093462;28;20076;-53
2022/01/08 04:44:10;;;;;;;15.68;5.70;;;;;;;5.66;100.00;100927.22;5076464;28;20044;-55
2022/01/08 04:46:38;;;;;;;22.88;5.90;;;;;;;5.76;100.00;100935.06;5093259;28;20109;-52
2022/01/08 04:49:04;;;;;;;24.95;5.30;;;;;;;5.47;100.00;100921.19;5093350;28;20092;-52
2022/01/08 04:51:30;;;;;;;11.00;4.82;;;;;;;5.54;100.00;100927.53;5093233;28;20035;-54
2022/01/08 04:53:55;;;;;;;17.50;5.17;;;;;;;5.65;100.00;100939.69;5093634;28;20468;-54
2022/01/08 04:56:21;;;;;;;23.23;7.53;;;;;;;5.66;100.00;100936.03;5092299;28;20044;-53
2022/01/08 04:58:46;;;;;;;12.67;4.10;;;;;;;5.60;100.00;100932.19;5095229;28;20047;-54
2022/01/08 05:01:13;;;;;;;21.60;4.90;;;;;;;5.65;100.00;100936.19;5097253;28;20498;-52
2022/01/08 05:03:39;;;;;;;19.60;4.80;;;;;;;5.55;100.00;100939.81;5096784;28;20507;-55
2022/01/08 05:06:04;;;;;;;12.45;4.82;;;;;;;5.39;100.00;100945.84;5097287;28;20070;-56
2022/01/08 05:08:30;;;;;;;23.07;6.13;;;;;;;5.63;100.00;100940.81;5097381;28;20055;-53
2022/01/08 05:10:55;;;;;;;24.73;4.50;;;;;;;5.46;100.00;100938.09;5097292;28;20036;-51
2022/01/08 05:13:21;;;;;;;20.33;4.53;;;;;;;5.50;100.00;100942.09;5097299;28;20098;-53
2022/01/08 05:15:46;;;;;;;10.73;4.97;;;;;;;5.56;100.00;100946.78;5095482;28;20040;-53
2022/01/08 05:18:12;;;;;;;36.97;8.70;;;;;;;5.41;100.00;100937.75;5097751;28;20044;-52
2022/01/08 05:20:41;;;;;;;16.63;5.43;;;;;;;5.42;100.00;100934.09;5096607;28;20116;-55
2022/01/08 05:23:07;;;;;;;18.48;5.60;;;;;;;5.43;100.00;100941.91;5097298;28;20040;-54
2022/01/08 05:25:33;;;;;;;22.17;6.37;;;;;;;5.29;100.00;100937.19;5101441;28;20051;-52
2022/01/08 05:27:59;;;;;;;29.30;7.25;;;;;;;5.59;100.00;100941.13;5096981;28;20036;-54
2022/01/08 05:30:26;;;;;;;14.18;5.55;;;;;;;5.27;100.00;100941.81;5096933;28;20044;-51
2022/01/08 05:32:52;;;;;;;13.10;5.18;;;;;;;5.15;100.00;100951.88;5096295;28;20036;-53
2022/01/08 05:35:19;;;;;;;18.02;8.25;;;;;;;5.18;100.00;100954.19;5096273;28;20044;-53
2022/01/08 05:37:44;;;;;;;14.10;6.20;;;;;;;5.28;100.00;100949.59;5096416;28;20111;-55
2022/01/08 05:40:11;;;;;;;14.37;5.33;;;;;;;4.97;100.00;100952.75;5096424;28;20367;-52
2022/01/08 05:42:37;;;;;;;15.23;5.80;;;;;;;5.02;100.00;100957.59;5078860;28;20465;-53
2022/01/08 05:45:03;;;;;;;20.77;6.07;;;;;;;5.19;100.00;100953.22;5095859;28;20052;-50
2022/01/08 05:47:31;;;;;;;17.95;6.13;;;;;;;5.11;100.00;100948.69;5096350;28;20047;-54
2022/01/08 05:49:56;;;;;;;16.98;5.95;;;;;;;4.99;100.00;100948.13;5096009;28;20134;-51
2022/01/08 05:52:22;;;;;;;23.63;7.25;;;;;;;5.14;100.00;100958.16;5096090;28;20047;-55
2022/01/08 05:54:48;;;;;;;21.40;7.17;;;;;;;5.02;100.00;100955.75;5095420;28;20050;-50
2022/01/08 05:57:13;;;;;;;21.70;7.70;;;;;;;5.22;100.00;100971.44;5095994;28;20043;-53
2022/01/08 05:59:38;;;;;;;18.53;6.60;;;;;;;5.08;100.00;100969.41;5096523;28;20272;-52
2022/01/08 06:02:05;;;;;;;19.92;8.15;;;;;;;4.95;100.00;100972.44;5096070;28;20050;-51
2022/01/08 06:04:31;;;;;;;18.38;8.65;;;;;;;5.07;100.00;100967.69;5096085;28;20040;-51
2022/01/08 06:06:57;;;;;;;26.38;9.57;;;;;;;5.00;100.00;100980.78;5094597;28;20047;-53
2022/01/08 06:09:22;;;;;;;27.30;9.95;;;;;;;4.85;100.00;100975.19;5094928;28;20044;-52
2022/01/08 06:11:48;;;;;;;28.33;9.27;;;;;;;5.11;100.00;100982.34;5095616;28;20036;-53
2022/01/08 06:14:13;;;;;;;28.23;10.03;;;;;;;4.72;100.00;100986.16;5095998;28;20125;-54
2022/01/08 06:16:39;;;;;;;20.67;8.73;;;;;;;4.90;100.00;100970.25;5094398;28;20028;-53
2022/01/08 06:19:07;;;;;;;27.23;8.82;;;;;;;4.74;100.00;100974.44;5095344;28;20484;-54
2022/01/08 06:21:32;;;;;;;18.48;9.00;;;;;;;4.95;100.00;100978.56;5094964;28;20037;-55
2022/01/08 06:23:58;;;;;;;31.60;9.73;;;;;;;4.87;100.00;100973.22;5095896;28;20052;-55
2022/01/08 06:26:24;;;;;;;33.13;11.65;;;;;;;4.86;100.00;100976.88;5095777;28;20048;-54
2022/01/08 06:28:51;;;;;;;27.10;11.23;;;;;;;4.93;100.00;100975.25;5077443;28;20044;-50
2022/01/08 06:31:22;;;;;;;29.52;11.13;;;;;;;5.03;100.00;100969.84;5095499;28;20079;-52
2022/01/08 06:33:48;;;;;;;32.50;10.45;;;;;;;4.94;100.00;100974.25;5095363;28;20040;-50
2022/01/08 06:36:17;;;;;;;23.13;10.25;;;;;;;4.94;100.00;100968.97;5095836;28;20066;-54
2022/01/08 06:38:43;;;;;;;29.50;11.40;;;;;;;5.01;100.00;100970.00;5088867;28;20048;-53
2022/01/08 06:41:09;;;;;;;22.50;10.23;;;;;;;5.06;100.00;100964.25;5101801;28;20123;-50
2022/01/08 06:43:35;;;;;;;26.05;10.93;;;;;;;5.18;100.00;100964.81;5094343;28;20047;-50
2022/01/08 06:46:01;;;;;;;34.97;12.47;;;;;;;5.16;100.00;100964.13;5095329;28;20086;-51
2022/01/08 06:48:26;;;;;;;30.27;11.68;;;;;;;5.30;100.00;100962.72;5060318;28;20468;-50
2022/01/08 06:50:52;;;;;;;31.63;11.97;;;;;;;5.11;100.00;100958.47;5094765;28;20142;-50
2022/01/08 06:53:17;;;;;;;24.07;12.10;;;;;;;5.22;100.00;100952.06;5093776;28;20131;-54
2022/01/08 06:55:43;;;;;;;32.00;14.07;;;;;;;5.00;100.00;100957.72;5076732;28;20079;-52
2022/01/08 06:58:09;;;;;;;36.90;14.23;;;;;;;5.07;100.00;100952.66;5094830;28;20357;-53
2022/01/08 07:00:35;;;;;;;32.75;12.93;;;;;;;5.33;100.00;100964.22;5076490;28;20044;-54
2022/01/08 07:03:00;;;;;;;31.33;11.38;;;;;;;5.12;100.00;100970.75;5076652;28;20431;-51
2022/01/08 07:05:26;;;;;;;33.20;14.37;;;;;;;5.15;100.00;100965.13;5094650;28;20090;-54
2022/01/08 07:07:51;;;;;;;33.72;13.77;;;;;;;5.30;100.00;100966.22;5094520;28;20047;-53
2022/01/08 07:10:17;;;;;;;46.40;17.60;;;;;;;5.08;100.00;100970.22;5094556;28;20115;-54
2022/01/08 07:12:42;;;;;;;34.95;15.85;;;;;;;5.13;100.00;100975.06;5076531;28;20043;-53
2022/01/08 07:15:09;;;;;;;45.08;15.85;;;;;;;5.25;100.00;100965.84;5095199;28;20059;-51
2022/01/08 07:17:34;;;;;;;30.05;13.77;;;;;;;5.39;100.00;100960.94;5094251;28;20075;-52
2022/01/08 07:19:59;;;;;;;38.90;15.73;;;;;;;5.41;100.00;100964.25;5094675;28;20132;-51
2022/01/08 07:22:25;;;;;;;30.40;16.20;;;;;;;5.17;100.00;100965.78;5093285;28;20062;-54
2022/01/08 07:24:50;;;;;;;32.70;16.00;;;;;;;5.26;100.00;100950.78;5093300;28;20499;-53
2022/01/08 07:27:16;;;;;;;37.83;17.13;;;;;;;5.31;100.00;100954.63;5093531;28;20495;-53
2022/01/08 07:29:41;;;;;;;38.07;15.70;;;;;;;5.53;100.00;100957.69;5076311;28;20051;-55
2022/01/08 07:32:07;;;;;;;37.27;15.40;;;;;;;5.30;100.00;100952.13;5094553;28;20036;-50
2022/01/08 07:34:33;;;;;;;30.70;15.05;;;;;;;5.28;100.00;100954.91;5076120;28;20032;-53
2022/01/08 07:36:58;;;;;;;33.08;16.33;;;;;;;5.22;100.00;100950.25;5094115;28;20064;-53
2022/01/08 07:39:24;;;;;;;29.85;14.38;;;;;;;5.29;100.00;100951.25;5094055;28;20127;-50
2022/01/08 07:41:49;;;;;;;40.80;17.20;;;;;;;5.21;100.00;100951.22;5093813;28;20032;-52
2022/01/08 07:44:20;;;;;;;30.35;15.88;;;;;;;5.17;100.00;100947.25;5093360;28;20269;-54
2022/01/08 07:46:46;;;;;;;40.47;17.95;;;;;;;5.21;100.00;100948.56;5093383;28;20035;-54
2022/01/08 07:49:12;;;;;;;37.70;16.75;;;;;;;5.36;100.00;100948.81;5094053;28;20032;-54
2022/01/08 07:51:37;;;;;;;29.20;16.00;;;;;;;5.58;100.00;100943.94;5093289;28;20044;-55
2022/01/08 07:54:03;;;;;;;32.38;16.58;;;;;;;5.56;100.00;100945.94;5097466;28;20038;-56
2022/01/08 07:56:28;;;;;;;33.78;17.58;;;;;;;5.69;100.00;100953.44;5085537;28;20123;-51
2022/01/08 07:58:54;;;;;;;35.27;17.17;;;;;;;5.71;100.00;100956.75;5095845;28;20051;-55
2022/01/08 08:01:21;;;;;;;29.17;16.23;;;;;;;5.74;100.00;100945.81;5094653;28;20032;-54
2022/01/08 08:03:47;;;;;;;35.13;15.55;;;;;;;5.90;100.00;100947.72;5093010;28;20276;-51
2022/01/08 08:06:12;;;;;;;34.15;16.05;;;;;;;5.76;100.00;100949.13;5092421;28;20040;-53
2022/01/08 08:08:38;;;;;;;40.70;17.33;;;;;;;5.94;100.00;100954.34;5093532;28;20395;-53
2022/01/08 08:11:04;;;;;;;49.30;18.88;;;;;;;5.80;100.00;100950.50;5093869;28;20497;-52
2022/01/08 08:13:29;;;;;;;37.83;18.43;;;;;;;5.77;100.00;100940.22;5075886;28;20043;-52
2022/01/08 08:15:55;;;;;;;28.37;15.27;;;;;;;5.88;100.00;100941.72;5094157;28;20393;-52
2022/01/08 08:18:20;;;;;;;24.50;13.40;;;;;;;6.19;100.00;100933.19;5098833;28;20059;-53
2022/01/08 08:20:46;;;;;;;36.70;18.87;;;;;;;6.07;100.00;100927.38;5102167;28;20616;-54
2022/01/08 08:23:11;;;;;;;35.17;16.88;;;;;;;6.02;100.00;100929.69;5100043;28;20039;-54
2022/01/08 08:25:37;;;;;;;30.13;15.77;;;;;;;5.94;100.00;100919.00;5092268;28;20063;-53
2022/01/08 08:28:04;;;;;;;43.60;18.45;;;;;;;6.14;100.00;100920.41;5096009;28;20040;-54
2022/01/08 08:30:29;;;;;;;33.53;17.55;;;;;;;6.01;100.00;100912.09;5100896;28;20036;-52
2022/01/08 08:32:55;;;;;;;37.93;19.47;;;;;;;6.12;100.00;100909.13;5097799;28;20036;-54
2022/01/08 08:35:20;;;;;;;44.30;16.77;;;;;;;6.34;100.00;100912.13;5103621;28;20326;-51
2022/01/08 08:37:47;;;;;;;32.77;17.53;;;;;;;6.34;100.00;100920.09;5097393;28;20044;-54
2022/01/08 08:40:14;;;;;;;37.72;16.90;;;;;;;6.37;100.00;100911.78;5097977;28;20047;-53
2022/01/08 08:42:40;;;;;;;34.00;14.95;;;;;;;6.60;100.00;100914.63;5098159;28;20036;-52
2022/01/08 08:45:07;;;;;;;32.20;15.30;;;;;;;6.66;100.00;100910.44;5098486;28;20138;-53
2022/01/08 08:47:33;;;;;;;35.08;15.60;;;;;;;6.89;100.00;100910.59;5080287;28;20467;-52
2022/01/08 08:49:59;;;;;;;30.08;16.83;;;;;;;6.54;100.00;100907.28;5097374;28;20044;-52
2022/01/08 08:52:25;;;;;;;25.10;15.15;;;;;;;6.67;100.00;100911.28;5096894;28;20036;-52
2022/01/08 08:54:51;;;;;;;28.47;15.13;;;;;;;6.78;100.00;100907.44;5097355;28;20039;-53
2022/01/08 08:57:17;;;;;;;27.75;15.70;;;;;;;6.43;100.00;100905.78;5097639;28;20322;-52
2022/01/08 08:59:43;;;;;;;35.88;15.25;;;;;;;6.19;100.00;100906.63;5097932;28;20036;-56
2022/01/08 09:02:08;;;;;;;33.93;15.83;;;;;;;6.45;100.00;100889.69;5096074;28;20093;-52
2022/01/08 09:04:36;;;;;;;37.10;16.55;;;;;;;6.28;100.00;100892.34;5097857;28;20043;-54
2022/01/08 09:07:03;;;;;;;38.25;16.63;;;;;;;6.23;100.00;100900.00;5096699;28;20090;-52
2022/01/08 09:09:28;;;;;;;;;;;;;;;6.49;100.00;100893.69;5097869;28;20480;-51
2022/01/08 09:11:54;;;;;;;27.57;15.30;;;;;;;6.34;100.00;100895.34;5097143;28;19919;-52
2022/01/08 09:14:19;;;;;;;40.43;16.80;;;;;;;6.13;100.00;100894.84;5108358;28;20028;-51
2022/01/08 09:16:51;;;;;;;33.75;16.58;;;;;;;5.99;100.00;100893.63;5104328;28;20055;-54
2022/01/08 09:19:17;;;;;;;42.35;18.40;;;;;;;6.16;100.00;100889.19;5097719;28;20109;-51
2022/01/08 09:21:44;;;;;;;36.85;16.42;;;;;;;6.47;100.00;100890.38;5096730;28;20032;-54
2022/01/08 09:24:10;;;;;;;;;;;;;;;6.19;100.00;100882.75;5097874;28;20052;-51
2022/01/08 09:26:35;;;;;;;28.63;13.40;;;;;;;6.37;100.00;100900.34;5095649;28;20034;-51
2022/01/08 09:29:01;;;;;;;35.95;17.50;;;;;;;6.54;100.00;100883.38;5096363;28;20071;-55
2022/01/08 09:31:26;;;;;;;31.47;15.63;;;;;;;6.56;100.00;100872.59;5096466;28;20040;-53
2022/01/08 09:33:52;;;;;;;24.30;13.47;;;;;;;6.47;100.00;100870.94;5096918;28;20778;-54
2022/01/08 09:36:18;;;;;;;31.92;14.93;;;;;;;6.43;100.00;100860.63;5095643;28;20117;-52
2022/01/08 09:38:44;;;;;;;32.83;14.93;;;;;;;6.27;100.00;100860.66;5096507;28;20051;-50
2022/01/08 09:41:10;;;;;;;37.90;14.10;;;;;;;6.40;100.00;100873.44;5096661;28;20036;-53
2022/01/08 09:43:36;;;;;;;34.72;16.48;;;;;;;6.36;100.00;100866.81;5097188;28;20048;-52
2022/01/08 09:46:03;;;;;;;34.23;15.17;;;;;;;6.23;100.00;100867.28;5094059;28;20475;-52
2022/01/08 09:48:29;;;;;;;41.88;15.95;;;;;;;6.14;100.00;100869.13;5095131;28;20268;-51
2022/01/08 09:50:54;;;;;;;45.03;18.35;;;;;;;6.50;100.00;100847.50;5096284;28;20047;-53
2022/01/08 09:53:21;;;;;;;32.23;16.50;;;;;;;6.51;100.00;100845.69;5096028;28;20483;-51
2022/01/08 09:55:47;;;;;;;33.65;16.98;;;;;;;6.46;100.00;100827.59;5095760;28;20284;-51
2022/01/08 09:58:12;;;;;;;37.75;19.08;;;;;;;6.87;100.00;100845.28;5096523;28;20032;-52
2022/01/08 10:00:38;;;;;;;37.58;17.85;;;;;;;6.56;100.00;100830.88;5096083;28;20093;-53
2022/01/08 10:03:33;;;;;;;30.88;15.07;;;;;;;6.63;100.00;100831.06;5096173;28;20032;-52
2022/01/08 10:06:00;;;;;;;36.33;16.73;;;;;;;6.71;100.00;100809.78;5083555;28;20048;-51
2022/01/08 10:08:31;;;;;;;35.92;18.20;;;;;;;6.58;100.00;100804.16;5062208;28;20095;-51
2022/01/08 10:11:04;;;;;;;40.60;16.70;;;;;;;6.48;100.00;100788.41;5094669;28;20480;-51
2022/01/08 10:13:34;;;;;;;43.15;18.98;;;;;;;6.60;100.00;100794.19;5094789;28;20040;-55
2022/01/08 10:18:46;;;;;;;39.65;18.58;;;;;;;6.62;100.00;100776.25;5095298;28;20078;-55
2022/01/08 10:21:19;;;;;;;;;;;;;;;6.42;100.00;100767.84;5094924;28;20114;-55
2022/01/08 10:23:48;;;;;;;33.97;14.95;;;;;;;6.67;100.00;100770.44;5095672;28;19916;-54
2022/01/08 10:26:16;;;;;;;35.17;17.30;;;;;;;6.57;100.00;100767.97;5094450;28;20028;-54
2022/01/08 10:28:46;;;;;;;40.53;16.30;;;;;;;6.50;100.00;100761.69;5095627;28;20036;-52
2022/01/08 10:31:13;;;;;;;43.10;16.40;;;;;;;6.77;100.00;100762.25;5078152;28;20092;-54
2022/01/08 10:33:40;;;;;;;32.70;16.38;;;;;;;6.73;100.00;100736.03;5107438;28;20024;-56
2022/01/08 10:36:05;;;;;;;;;;;;;;;6.85;100.00;100733.81;5111149;28;20388;-52
2022/01/08 10:38:31;;;;;;;35.70;15.40;;;;;;;6.70;100.00;100723.09;5100373;28;19912;-53
2022/01/08 10:40:59;;;;;;;31.63;13.83;;;;;;;6.68;100.00;100722.41;5096549;28;20093;-50
2022/01/08 10:43:26;;;;;;;38.30;16.48;;;;;;;6.66;100.00;100721.75;5095251;28;20036;-53
2022/01/08 10:45:56;;;;;;;;;;;;;;;6.77;100.00;100707.25;5095471;28;20040;-52
2022/01/08 10:48:31;;;;;;;41.90;15.88;;;;;;;6.74;100.00;100697.81;5095153;28;20325;-55
2022/01/08 10:51:11;;;;;;;35.25;16.13;;;;;;;7.02;100.00;100705.31;5095291;28;20047;-54
2022/01/08 10:54:15;;;;;;;40.50;15.88;;;;;;;7.05;100.00;100690.00;5093799;28;20469;-54
2022/01/08 10:56:42;;;;;;;32.70;15.93;;;;;;;7.08;100.00;100697.63;5093406;28;20036;-54
2022/01/08 10:59:12;;;;;;;28.48;12.73;;;;;;;7.00;100.00;100687.84;5093608;28;20039;-53
2022/01/08 11:02:02;;;;;;;36.50;14.23;;;;;;;7.01;100.00;100694.81;5095365;28;20066;-55
2022/01/08 11:04:32;;;;;;;39.75;14.27;;;;;;;7.22;100.00;100686.22;5093734;28;20044;-52
2022/01/08 11:07:28;;;;;;;41.00;15.25;;;;;;;7.84;100.00;100681.75;5094927;28;20103;-54
2022/01/08 11:09:54;;;;;;;27.38;11.57;;;;;;;7.07;100.00;100714.56;5095272;28;20047;-50
2022/01/08 11:12:25;;;;;;;32.07;11.50;;;;;;;7.14;100.00;100668.50;5094819;28;20083;-55
2022/01/08 11:17:24;;;;;;;29.35;12.43;;;;;;;7.34;100.00;100667.19;5095586;28;20113;-54
2022/01/08 11:19:53;;;;;;;28.42;12.25;;;;;;;7.47;100.00;100657.59;5094504;28;20051;-52
2022/01/08 11:22:21;;;;;;;23.80;10.80;;;;;;;7.14;100.00;100657.84;5094093;28;20104;-53
2022/01/08 11:24:56;;;;;;;25.38;12.02;;;;;;;7.49;100.00;100629.97;5094644;28;20079;-50
2022/01/08 11:27:46;;;;;;;38.22;13.10;;;;;;;7.36;100.00;100618.13;5094760;28;20036;-51
2022/01/08 11:30:31;;;;;;;27.30;12.10;;;;;;;7.52;100.00;100619.81;5094335;28;20124;-52
2022/01/08 11:33:03;;;;;;;33.53;12.20;;;;;;;7.44;100.00;100614.56;5093592;28;20040;-50
2022/01/08 11:35:31;;;;;;;31.40;12.60;;;;;;;7.52;100.00;100603.84;5094239;28;20040;-52
2022/01/08 11:38:02;;;;;;;29.42;12.73;;;;;;;7.72;100.00;100601.47;5094547;28;20079;-54
2022/01/08 11:40:28;;;;;;;31.67;11.45;;;;;;;7.61;100.00;100604.59;5094110;28;20032;-56